N47VC KMCO-KPBI
Flight info
| Callsign | N47VC |
|---|---|
| Flight time | 0h 36m |
| Altitude | 23000 |
| Route | DDANY3 BORRD CPTAN3 |
| Aircraft | PC24/M-SBDGIRWY/LB2 |
Departure
| Time | 2026-05-04 03:45 |
|---|---|
| Airport | Orlando International Airport (KMCO) |
Arrival
| Time | 2026-05-04 04:21 |
|---|---|
| Airport | Palm Beach International Airport (KPBI) |
| Time | Latitude | Longitude | Altitude | Speed | Heading |
|---|---|---|---|---|---|
| 2026-05-04 03:25 | 28.42135 | -81.33033 | 90 ft | 0 kts | 5° |
| 2026-05-04 03:36 | 28.42176 | -81.33022 | 98 ft | 18 kts | 18° |
| 2026-05-04 03:36 | 28.42321 | -81.32937 | 97 ft | 22 kts | 16° |
| 2026-05-04 03:37 | 28.42470 | -81.32917 | 95 ft | 21 kts | 1° |
| 2026-05-04 03:37 | 28.42601 | -81.32918 | 98 ft | 18 kts | 2° |
| 2026-05-04 03:37 | 28.42652 | -81.32816 | 99 ft | 20 kts | 91° |
| 2026-05-04 03:37 | 28.42633 | -81.32648 | 98 ft | 26 kts | 112° |
| 2026-05-04 03:38 | 28.42530 | -81.32431 | 101 ft | 36 kts | 119° |
| 2026-05-04 03:38 | 28.42422 | -81.32221 | 106 ft | 25 kts | 120° |
| 2026-05-04 03:38 | 28.42296 | -81.32000 | 105 ft | 40 kts | 125° |
| 2026-05-04 03:38 | 28.42266 | -81.31703 | 98 ft | 38 kts | 88° |
| 2026-05-04 03:39 | 28.42270 | -81.31410 | 93 ft | 36 kts | 91° |
| 2026-05-04 03:39 | 28.42248 | -81.31136 | 89 ft | 34 kts | 99° |
| 2026-05-04 03:39 | 28.42241 | -81.30879 | 97 ft | 36 kts | 88° |
| 2026-05-04 03:39 | 28.42260 | -81.30594 | 100 ft | 34 kts | 85° |
| 2026-05-04 03:40 | 28.42274 | -81.30334 | 97 ft | 32 kts | 88° |
| 2026-05-04 03:40 | 28.42278 | -81.30095 | 98 ft | 30 kts | 90° |
| 2026-05-04 03:40 | 28.42282 | -81.29867 | 99 ft | 28 kts | 89° |
| 2026-05-04 03:40 | 28.42216 | -81.29698 | 98 ft | 26 kts | 179° |
| 2026-05-04 03:41 | 28.42047 | -81.29696 | 99 ft | 23 kts | 179° |
| 2026-05-04 03:41 | 28.41893 | -81.29694 | 98 ft | 22 kts | 179° |
| 2026-05-04 03:41 | 28.41744 | -81.29694 | 98 ft | 21 kts | 180° |
| 2026-05-04 03:41 | 28.41610 | -81.29694 | 100 ft | 18 kts | 179° |
| 2026-05-04 03:42 | 28.41457 | -81.29691 | 98 ft | 27 kts | 179° |
| 2026-05-04 03:42 | 28.41268 | -81.29690 | 97 ft | 27 kts | 179° |
| 2026-05-04 03:42 | 28.41088 | -81.29687 | 96 ft | 26 kts | 180° |
| 2026-05-04 03:42 | 28.40938 | -81.29662 | 93 ft | 2 kts | 122° |
| 2026-05-04 03:43 | 28.40932 | -81.29629 | 93 ft | 15 kts | 91° |
| 2026-05-04 03:43 | 28.40995 | -81.29561 | 94 ft | 13 kts | 359° |
| 2026-05-04 03:44 | 28.41035 | -81.29562 | 95 ft | 25 kts | 360° |
| 2026-05-04 03:44 | 28.41523 | -81.29569 | 101 ft | 112 kts | 360° |
| 2026-05-04 03:44 | 28.42534 | -81.29582 | 242 ft | 171 kts | 0° |
| 2026-05-04 03:44 | 28.43788 | -81.29598 | 624 ft | 181 kts | 359° |
| 2026-05-04 03:45 | 28.45047 | -81.29689 | 969 ft | 180 kts | 359° |
| 2026-05-04 03:45 | 28.46248 | -81.29468 | 1460 ft | 165 kts | 25° |
| 2026-05-04 03:45 | 28.47224 | -81.28861 | 1967 ft | 167 kts | 43° |
| 2026-05-04 03:45 | 28.48054 | -81.27809 | 2496 ft | 197 kts | 59° |
| 2026-05-04 03:46 | 28.48643 | -81.26287 | 2621 ft | 227 kts | 68° |
| 2026-05-04 03:46 | 28.49277 | -81.24581 | 2615 ft | 239 kts | 67° |
| 2026-05-04 03:46 | 28.49941 | -81.22805 | 2611 ft | 244 kts | 67° |
| 2026-05-04 03:46 | 28.50455 | -81.20971 | 2605 ft | 245 kts | 79° |
| 2026-05-04 03:47 | 28.50761 | -81.19058 | 2823 ft | 245 kts | 78° |
| 2026-05-04 03:47 | 28.51010 | -81.17240 | 4331 ft | 222 kts | 89° |
| 2026-05-04 03:47 | 28.50902 | -81.15467 | 4999 ft | 247 kts | 102° |
| 2026-05-04 03:47 | 28.50441 | -81.13497 | 4996 ft | 259 kts | 107° |
| 2026-05-04 03:48 | 28.49978 | -81.11482 | 5003 ft | 266 kts | 105° |
| 2026-05-04 03:48 | 28.49522 | -81.09431 | 4999 ft | 268 kts | 105° |
| 2026-05-04 03:48 | 28.49062 | -81.07396 | 5876 ft | 255 kts | 106° |
| 2026-05-04 03:48 | 28.48459 | -81.05625 | 7422 ft | 227 kts | 120° |
| 2026-05-04 03:49 | 28.47573 | -81.04167 | 8371 ft | 232 kts | 134° |
| 2026-05-04 03:49 | 28.46355 | -81.02932 | 9193 ft | 236 kts | 145° |
| 2026-05-04 03:49 | 28.45047 | -81.01750 | 10036 ft | 243 kts | 145° |
| 2026-05-04 03:49 | 28.44168 | -81.00945 | 10550 ft | 246 kts | 145° |
| 2026-05-04 03:50 | 28.42827 | -80.99718 | 11397 ft | 248 kts | 146° |
| 2026-05-04 03:50 | 28.41469 | -80.98481 | 12243 ft | 251 kts | 146° |
| 2026-05-04 03:50 | 28.40098 | -80.97234 | 13105 ft | 254 kts | 147° |
| 2026-05-04 03:50 | 28.38709 | -80.95968 | 13973 ft | 257 kts | 148° |
| 2026-05-04 03:51 | 28.37303 | -80.94689 | 14756 ft | 260 kts | 149° |
| 2026-05-04 03:51 | 28.35887 | -80.93400 | 15551 ft | 262 kts | 150° |
| 2026-05-04 03:51 | 28.34454 | -80.92097 | 16334 ft | 265 kts | 151° |
| 2026-05-04 03:51 | 28.33029 | -80.90802 | 17098 ft | 268 kts | 152° |
| 2026-05-04 03:52 | 28.31570 | -80.89474 | 17868 ft | 270 kts | 153° |
| 2026-05-04 03:52 | 28.30093 | -80.88132 | 18582 ft | 273 kts | 153° |
| 2026-05-04 03:52 | 28.28672 | -80.86642 | 19186 ft | 287 kts | 142° |
| 2026-05-04 03:52 | 28.27497 | -80.84746 | 19804 ft | 301 kts | 129° |
| 2026-05-04 03:53 | 28.26624 | -80.82518 | 20264 ft | 318 kts | 121° |
| 2026-05-04 03:53 | 28.25749 | -80.80089 | 20296 ft | 345 kts | 121° |
| 2026-05-04 03:53 | 28.24812 | -80.77483 | 20332 ft | 369 kts | 120° |
| 2026-05-04 03:53 | 28.23836 | -80.74745 | 20563 ft | 382 kts | 119° |
| 2026-05-04 03:54 | 28.22844 | -80.71954 | 21145 ft | 383 kts | 120° |
| 2026-05-04 03:54 | 28.21623 | -80.69293 | 21617 ft | 377 kts | 132° |
| 2026-05-04 03:54 | 28.20044 | -80.66957 | 22077 ft | 372 kts | 141° |
| 2026-05-04 03:54 | 28.18111 | -80.64955 | 22065 ft | 379 kts | 152° |
| 2026-05-04 03:55 | 28.15917 | -80.63250 | 22102 ft | 389 kts | 156° |
| 2026-05-04 03:55 | 28.13633 | -80.61511 | 22345 ft | 397 kts | 155° |
| 2026-05-04 03:55 | 28.11348 | -80.59739 | 22789 ft | 398 kts | 155° |
| 2026-05-04 03:55 | 28.09045 | -80.57971 | 23078 ft | 403 kts | 155° |
| 2026-05-04 03:56 | 28.06745 | -80.56216 | 23084 ft | 402 kts | 155° |
| 2026-05-04 03:56 | 28.04434 | -80.54443 | 23085 ft | 400 kts | 155° |
| 2026-05-04 03:56 | 28.02125 | -80.52675 | 23083 ft | 399 kts | 155° |
| 2026-05-04 03:56 | 27.99820 | -80.50914 | 23081 ft | 399 kts | 155° |
| 2026-05-04 03:57 | 27.97513 | -80.49152 | 23077 ft | 400 kts | 155° |
| 2026-05-04 03:57 | 27.95204 | -80.47387 | 23078 ft | 400 kts | 155° |
| 2026-05-04 03:57 | 27.92919 | -80.45677 | 23075 ft | 396 kts | 158° |
| 2026-05-04 03:57 | 27.90488 | -80.44301 | 23075 ft | 387 kts | 166° |
| 2026-05-04 03:58 | 27.85457 | -80.42262 | 23076 ft | 384 kts | 169° |
| 2026-05-04 03:58 | 27.82935 | -80.41240 | 23076 ft | 384 kts | 169° |
| 2026-05-04 03:58 | 27.80411 | -80.40226 | 23084 ft | 384 kts | 169° |
| 2026-05-04 03:59 | 27.77888 | -80.39220 | 23085 ft | 385 kts | 169° |
| 2026-05-04 03:59 | 27.75394 | -80.38223 | 23088 ft | 385 kts | 169° |
| 2026-05-04 03:59 | 27.72871 | -80.37211 | 23087 ft | 384 kts | 169° |
| 2026-05-04 03:59 | 27.70353 | -80.36203 | 23090 ft | 383 kts | 169° |
| 2026-05-04 04:00 | 27.67837 | -80.35198 | 23084 ft | 383 kts | 169° |
| 2026-05-04 04:00 | 27.65346 | -80.34093 | 23082 ft | 388 kts | 164° |
| 2026-05-04 04:00 | 27.62902 | -80.32771 | 23059 ft | 385 kts | 164° |
| 2026-05-04 04:00 | 27.60516 | -80.31505 | 21695 ft | 380 kts | 164° |
| 2026-05-04 04:01 | 27.58133 | -80.30277 | 20414 ft | 379 kts | 164° |
| 2026-05-04 04:01 | 27.55755 | -80.29022 | 19272 ft | 374 kts | 163° |
| 2026-05-04 04:01 | 27.53412 | -80.27773 | 18113 ft | 371 kts | 162° |
| 2026-05-04 04:01 | 27.51087 | -80.26546 | 16927 ft | 365 kts | 162° |
| 2026-05-04 04:02 | 27.48806 | -80.25345 | 15812 ft | 358 kts | 161° |
| 2026-05-04 04:02 | 27.46579 | -80.24171 | 15186 ft | 342 kts | 161° |
| 2026-05-04 04:02 | 27.44514 | -80.23072 | 14898 ft | 317 kts | 161° |
| 2026-05-04 04:02 | 27.42557 | -80.22048 | 14119 ft | 313 kts | 162° |
| 2026-05-04 04:03 | 27.40584 | -80.21021 | 13313 ft | 311 kts | 161° |
| 2026-05-04 04:03 | 27.38674 | -80.20010 | 12960 ft | 298 kts | 161° |
| 2026-05-04 04:03 | 27.36783 | -80.19018 | 12572 ft | 303 kts | 161° |
| 2026-05-04 04:03 | 27.34861 | -80.18012 | 12172 ft | 306 kts | 160° |
| 2026-05-04 04:04 | 27.32929 | -80.16996 | 11763 ft | 307 kts | 160° |
| 2026-05-04 04:04 | 27.30998 | -80.15978 | 11362 ft | 306 kts | 160° |
| 2026-05-04 04:04 | 27.29075 | -80.14969 | 10959 ft | 304 kts | 160° |
| 2026-05-04 04:04 | 27.27166 | -80.13966 | 10560 ft | 301 kts | 160° |
| 2026-05-04 04:05 | 27.25275 | -80.12986 | 10166 ft | 297 kts | 161° |
| 2026-05-04 04:05 | 27.23398 | -80.12092 | 9766 ft | 296 kts | 161° |
| 2026-05-04 04:05 | 27.21496 | -80.11162 | 9366 ft | 293 kts | 160° |
| 2026-05-04 04:05 | 27.19654 | -80.10262 | 8986 ft | 291 kts | 160° |
| 2026-05-04 04:06 | 27.17797 | -80.09362 | 8604 ft | 289 kts | 160° |
| 2026-05-04 04:06 | 27.15949 | -80.08468 | 8220 ft | 288 kts | 160° |
| 2026-05-04 04:06 | 27.14107 | -80.07577 | 7841 ft | 287 kts | 159° |
| 2026-05-04 04:06 | 27.12279 | -80.06687 | 7466 ft | 285 kts | 158° |
| 2026-05-04 04:07 | 27.10464 | -80.05781 | 7088 ft | 285 kts | 158° |
| 2026-05-04 04:07 | 27.08681 | -80.04893 | 6715 ft | 282 kts | 158° |
| 2026-05-04 04:07 | 27.06889 | -80.04006 | 6335 ft | 280 kts | 158° |
| 2026-05-04 04:07 | 27.05110 | -80.03128 | 5963 ft | 277 kts | 158° |
| 2026-05-04 04:08 | 27.03346 | -80.02256 | 5590 ft | 275 kts | 158° |
| 2026-05-04 04:08 | 27.01595 | -80.01390 | 5229 ft | 273 kts | 157° |
| 2026-05-04 04:08 | 26.99877 | -80.00542 | 4876 ft | 272 kts | 156° |
| 2026-05-04 04:08 | 26.98134 | -79.99727 | 4503 ft | 270 kts | 162° |
| 2026-05-04 04:09 | 26.96285 | -79.99417 | 4145 ft | 267 kts | 179° |
| 2026-05-04 04:09 | 26.94519 | -79.99653 | 4034 ft | 243 kts | 194° |
| 2026-05-04 04:09 | 26.93001 | -80.00301 | 3992 ft | 228 kts | 207° |
| 2026-05-04 04:09 | 26.91707 | -80.01276 | 3986 ft | 222 kts | 218° |
| 2026-05-04 04:10 | 26.90492 | -80.02326 | 3985 ft | 223 kts | 217° |
| 2026-05-04 04:10 | 26.89252 | -80.03381 | 3986 ft | 224 kts | 217° |
| 2026-05-04 04:10 | 26.88016 | -80.04444 | 3992 ft | 224 kts | 217° |
| 2026-05-04 04:10 | 26.86778 | -80.05512 | 3991 ft | 225 kts | 217° |
| 2026-05-04 04:11 | 26.85532 | -80.06583 | 3994 ft | 225 kts | 217° |
| 2026-05-04 04:11 | 26.84289 | -80.07652 | 3994 ft | 224 kts | 218° |
| 2026-05-04 04:11 | 26.83059 | -80.08723 | 3993 ft | 224 kts | 218° |
| 2026-05-04 04:11 | 26.81865 | -80.09800 | 3988 ft | 222 kts | 224° |
| 2026-05-04 04:12 | 26.80971 | -80.11196 | 3991 ft | 221 kts | 243° |
| 2026-05-04 04:12 | 26.80510 | -80.12838 | 3992 ft | 222 kts | 262° |
| 2026-05-04 04:12 | 26.80385 | -80.14559 | 3997 ft | 221 kts | 265° |
| 2026-05-04 04:12 | 26.80259 | -80.16280 | 4000 ft | 223 kts | 265° |
| 2026-05-04 04:13 | 26.80131 | -80.18004 | 4009 ft | 222 kts | 265° |
| 2026-05-04 04:13 | 26.80012 | -80.19735 | 4000 ft | 222 kts | 266° |
| 2026-05-04 04:13 | 26.80151 | -80.21427 | 3994 ft | 221 kts | 279° |
| 2026-05-04 04:13 | 26.80385 | -80.23132 | 3996 ft | 222 kts | 277° |
| 2026-05-04 04:14 | 26.80599 | -80.24862 | 4001 ft | 223 kts | 277° |
| 2026-05-04 04:14 | 26.80749 | -80.26584 | 3986 ft | 221 kts | 264° |
| 2026-05-04 04:14 | 26.80058 | -80.28076 | 3993 ft | 221 kts | 221° |
| 2026-05-04 04:14 | 26.78747 | -80.28972 | 4012 ft | 221 kts | 207° |
| 2026-05-04 04:15 | 26.77369 | -80.29709 | 4009 ft | 222 kts | 207° |
| 2026-05-04 04:15 | 26.76000 | -80.30506 | 4006 ft | 222 kts | 209° |
| 2026-05-04 04:15 | 26.74571 | -80.31021 | 3986 ft | 217 kts | 189° |
| 2026-05-04 04:15 | 26.73122 | -80.31028 | 3894 ft | 204 kts | 173° |
| 2026-05-04 04:16 | 26.71766 | -80.30573 | 3683 ft | 202 kts | 156° |
| 2026-05-04 04:16 | 26.70599 | -80.29713 | 3435 ft | 200 kts | 139° |
| 2026-05-04 04:16 | 26.69701 | -80.28526 | 3169 ft | 200 kts | 122° |
| 2026-05-04 04:16 | 26.69147 | -80.27137 | 2914 ft | 198 kts | 106° |
| 2026-05-04 04:17 | 26.68953 | -80.25651 | 2655 ft | 191 kts | 92° |
| 2026-05-04 04:17 | 26.68902 | -80.24226 | 2390 ft | 175 kts | 93° |
| 2026-05-04 04:17 | 26.68842 | -80.22898 | 2178 ft | 168 kts | 92° |
| 2026-05-04 04:17 | 26.68785 | -80.21605 | 1966 ft | 165 kts | 92° |
| 2026-05-04 04:18 | 26.68733 | -80.20420 | 1771 ft | 142 kts | 92° |
| 2026-05-04 04:18 | 26.68687 | -80.19370 | 1573 ft | 131 kts | 92° |
| 2026-05-04 04:18 | 26.68644 | -80.18375 | 1411 ft | 126 kts | 91° |
| 2026-05-04 04:18 | 26.68601 | -80.17403 | 1254 ft | 124 kts | 91° |
| 2026-05-04 04:19 | 26.68560 | -80.16438 | 1095 ft | 124 kts | 91° |
| 2026-05-04 04:19 | 26.68518 | -80.15480 | 935 ft | 124 kts | 91° |
| 2026-05-04 04:19 | 26.68475 | -80.14529 | 773 ft | 122 kts | 92° |
| 2026-05-04 04:19 | 26.68442 | -80.13582 | 603 ft | 122 kts | 91° |
| 2026-05-04 04:20 | 26.68408 | -80.12656 | 439 ft | 118 kts | 89° |
| 2026-05-04 04:20 | 26.68365 | -80.11740 | 216 ft | 124 kts | 91° |
| 2026-05-04 04:20 | 26.68316 | -80.10795 | 94 ft | 116 kts | 92° |
| 2026-05-04 04:20 | 26.68282 | -80.09967 | 25 ft | 94 kts | 91° |
| 2026-05-04 04:21 | 26.68255 | -80.09330 | 18 ft | 71 kts | 93° |
| 2026-05-04 04:21 | 26.68241 | -80.08986 | 17 ft | 33 kts | 91° |
| 2026-05-04 04:21 | 26.68342 | -80.08843 | 17 ft | 17 kts | 4° |
| 2026-05-04 04:21 | 26.68354 | -80.08842 | 17 ft | 0 kts | 6° |